sensor_id;sensor_type;location;lat;lon;timestamp;noise_LAeq;noise_LA_min;noise_LA_max;noise_LA01;noise_LA95
11999;Laerm;40817;51.520;9.954;2024-03-08T00:33:25;41.20;36.45;45.48;;
11999;Laerm;40817;51.520;9.954;2024-03-08T00:35:56;40.19;33.90;43.09;;
11999;Laerm;40817;51.520;9.954;2024-03-08T00:38:31;40.32;35.66;44.23;;
11999;Laerm;40817;51.520;9.954;2024-03-08T00:41:05;40.61;35.04;43.63;;
11999;Laerm;40817;51.520;9.954;2024-03-08T00:43:40;39.55;34.69;45.01;;
11999;Laerm;40817;51.520;9.954;2024-03-08T00:46:22;39.30;32.93;42.71;;
11999;Laerm;40817;51.520;9.954;2024-03-08T00:49:12;40.14;34.31;45.86;;
11999;Laerm;40817;51.520;9.954;2024-03-08T00:51:56;39.09;32.93;43.81;;
11999;Laerm;40817;51.520;9.954;2024-03-08T00:54:53;39.51;34.31;42.53;;
11999;Laerm;40817;51.520;9.954;2024-03-08T00:57:38;39.15;33.90;47.24;;
11999;Laerm;40817;51.520;9.954;2024-03-08T01:00:13;39.02;31.68;44.58;;
11999;Laerm;40817;51.520;9.954;2024-03-08T01:02:49;39.38;29.92;46.43;;
11999;Laerm;40817;51.520;9.954;2024-03-08T01:12:05;39.33;33.44;42.76;;
11999;Laerm;40817;51.520;9.954;2024-03-08T01:15:12;39.09;33.90;42.65;;
11999;Laerm;40817;51.520;9.954;2024-03-08T01:18:04;39.86;33.90;56.26;;
11999;Laerm;40817;51.520;9.954;2024-03-08T01:20:51;40.41;35.04;47.73;;
11999;Laerm;40817;51.520;9.954;2024-03-08T01:23:52;41.40;34.31;63.66;;
11999;Laerm;40817;51.520;9.954;2024-03-08T01:26:37;43.42;37.70;49.23;;
11999;Laerm;40817;51.520;9.954;2024-03-08T01:29:52;40.33;33.90;50.53;;
11999;Laerm;40817;51.520;9.954;2024-03-08T01:33:01;39.65;34.31;42.93;;
11999;Laerm;40817;51.520;9.954;2024-03-08T01:36:06;39.68;33.44;44.31;;
11999;Laerm;40817;51.520;9.954;2024-03-08T01:38:47;39.61;33.44;45.83;;
11999;Laerm;40817;51.520;9.954;2024-03-08T01:41:28;39.43;32.93;42.88;;
11999;Laerm;40817;51.520;9.954;2024-03-08T01:43:55;40.23;34.69;43.90;;
11999;Laerm;40817;51.520;9.954;2024-03-08T01:46:23;39.60;33.44;43.44;;
11999;Laerm;40817;51.520;9.954;2024-03-08T01:48:50;39.81;33.90;43.09;;
11999;Laerm;40817;51.520;9.954;2024-03-08T01:51:20;39.03;33.44;42.65;;
11999;Laerm;40817;51.520;9.954;2024-03-08T01:53:48;39.36;33.44;43.34;;
11999;Laerm;40817;51.520;9.954;2024-03-08T01:56:16;39.97;34.69;47.67;;
11999;Laerm;40817;51.520;9.954;2024-03-08T01:58:44;38.97;32.35;43.63;;
11999;Laerm;40817;51.520;9.954;2024-03-08T02:01:13;40.32;34.69;46.52;;
11999;Laerm;40817;51.520;9.954;2024-03-08T02:03:41;39.28;34.31;43.19;;
11999;Laerm;40817;51.520;9.954;2024-03-08T02:06:11;40.34;35.04;43.94;;
11999;Laerm;40817;51.520;9.954;2024-03-08T02:08:42;41.36;36.69;44.79;;
11999;Laerm;40817;51.520;9.954;2024-03-08T02:11:10;41.58;36.20;44.87;;
11999;Laerm;40817;51.520;9.954;2024-03-08T02:13:38;40.84;35.04;53.22;;
11999;Laerm;40817;51.520;9.954;2024-03-08T02:16:06;41.01;34.69;44.58;;
11999;Laerm;40817;51.520;9.954;2024-03-08T02:18:35;40.49;35.66;43.49;;
11999;Laerm;40817;51.520;9.954;2024-03-08T02:21:05;40.99;36.91;44.39;;
11999;Laerm;40817;51.520;9.954;2024-03-08T02:23:34;40.09;34.69;43.54;;
11999;Laerm;40817;51.520;9.954;2024-03-08T02:26:01;40.86;35.66;44.73;;
11999;Laerm;40817;51.520;9.954;2024-03-08T02:28:31;40.51;35.36;45.91;;
11999;Laerm;40817;51.520;9.954;2024-03-08T02:30:58;39.93;34.31;55.36;;
11999;Laerm;40817;51.520;9.954;2024-03-08T02:33:27;40.21;32.93;46.59;;
11999;Laerm;40817;51.520;9.954;2024-03-08T02:35:54;40.60;35.94;43.68;;
11999;Laerm;40817;51.520;9.954;2024-03-08T02:38:23;40.53;35.36;43.24;;
11999;Laerm;40817;51.520;9.954;2024-03-08T02:40:52;40.88;35.94;43.90;;
11999;Laerm;40817;51.520;9.954;2024-03-08T02:43:22;41.20;34.69;45.17;;
11999;Laerm;40817;51.520;9.954;2024-03-08T02:45:50;41.21;35.59;47.26;;
11999;Laerm;40817;51.520;9.954;2024-03-08T02:48:18;42.25;35.04;69.35;;
11999;Laerm;40817;51.520;9.954;2024-03-08T02:50:47;41.29;36.20;44.43;;
11999;Laerm;40817;51.520;9.954;2024-03-08T02:53:14;41.22;35.36;44.65;;
11999;Laerm;40817;51.520;9.954;2024-03-08T02:55:43;41.32;36.69;44.19;;
11999;Laerm;40817;51.520;9.954;2024-03-08T02:58:10;41.10;36.69;46.10;;
11999;Laerm;40817;51.520;9.954;2024-03-08T03:00:40;41.23;35.94;44.76;;
11999;Laerm;40817;51.520;9.954;2024-03-08T03:03:10;41.45;37.32;43.94;;
11999;Laerm;40817;51.520;9.954;2024-03-08T03:05:37;41.39;35.31;59.38;;
11999;Laerm;40817;51.520;9.954;2024-03-08T03:08:07;41.30;35.04;44.35;;
11999;Laerm;40817;51.520;9.954;2024-03-08T03:10:35;41.16;35.94;43.68;;
11999;Laerm;40817;51.520;9.954;2024-03-08T03:13:04;40.62;34.31;44.15;;
11999;Laerm;40817;51.520;9.954;2024-03-08T03:15:32;40.95;36.91;43.58;;
11999;Laerm;40817;51.520;9.954;2024-03-08T03:18:00;41.47;36.91;44.62;;
11999;Laerm;40817;51.520;9.954;2024-03-08T03:20:28;41.83;37.32;45.11;;
11999;Laerm;40817;51.520;9.954;2024-03-08T03:22:58;41.90;37.52;50.05;;
11999;Laerm;40817;51.520;9.954;2024-03-08T03:25:27;42.52;37.88;46.65;;
11999;Laerm;40817;51.520;9.954;2024-03-08T03:28:01;42.80;38.67;53.61;;
11999;Laerm;40817;51.520;9.954;2024-03-08T03:30:30;45.75;38.81;58.89;;
11999;Laerm;40817;51.520;9.954;2024-03-08T03:33:00;41.60;36.91;44.47;;
11999;Laerm;40817;51.520;9.954;2024-03-08T03:35:28;42.03;38.52;49.06;;
11999;Laerm;40817;51.520;9.954;2024-03-08T03:37:56;41.51;35.04;44.43;;
11999;Laerm;40817;51.520;9.954;2024-03-08T03:40:32;41.55;36.91;55.11;;
11999;Laerm;40817;51.520;9.954;2024-03-08T03:43:00;41.42;37.12;43.77;;
11999;Laerm;40817;51.520;9.954;2024-03-08T03:45:30;42.45;37.52;51.07;;
11999;Laerm;40817;51.520;9.954;2024-03-08T03:48:20;42.03;36.20;44.97;;
11999;Laerm;40817;51.520;9.954;2024-03-08T03:50:48;43.91;37.32;56.00;;
11999;Laerm;40817;51.520;9.954;2024-03-08T03:53:16;41.59;35.94;52.43;;
11999;Laerm;40817;51.520;9.954;2024-03-08T03:55:43;41.53;36.69;53.28;;
11999;Laerm;40817;51.520;9.954;2024-03-08T03:58:12;41.81;37.52;44.97;;
11999;Laerm;40817;51.520;9.954;2024-03-08T04:00:41;42.14;37.88;44.87;;
11999;Laerm;40817;51.520;9.954;2024-03-08T04:03:08;41.47;36.91;44.27;;
11999;Laerm;40817;51.520;9.954;2024-03-08T04:05:36;41.68;35.94;45.27;;
11999;Laerm;40817;51.520;9.954;2024-03-08T04:08:04;41.88;35.01;59.05;;
11999;Laerm;40817;51.520;9.954;2024-03-08T04:10:32;42.43;38.52;58.21;;
11999;Laerm;40817;51.520;9.954;2024-03-08T04:12:59;41.62;37.52;44.47;;
11999;Laerm;40817;51.520;9.954;2024-03-08T04:15:26;41.73;38.21;47.79;;
11999;Laerm;40817;51.520;9.954;2024-03-08T04:17:55;42.13;38.21;45.86;;
11999;Laerm;40817;51.520;9.954;2024-03-08T04:20:23;42.11;37.52;44.43;;
11999;Laerm;40817;51.520;9.954;2024-03-08T04:22:50;42.16;38.60;49.49;;
11999;Laerm;40817;51.520;9.954;2024-03-08T04:25:17;42.61;38.95;45.54;;
11999;Laerm;40817;51.520;9.954;2024-03-08T04:27:46;42.13;37.88;50.22;;
11999;Laerm;40817;51.520;9.954;2024-03-08T04:30:14;42.16;38.52;47.38;;
11999;Laerm;40817;51.520;9.954;2024-03-08T04:32:42;45.10;39.21;56.87;;
11999;Laerm;40817;51.520;9.954;2024-03-08T04:35:11;42.01;38.21;44.39;;
11999;Laerm;40817;51.520;9.954;2024-03-08T04:37:38;42.83;38.95;45.99;;
11999;Laerm;40817;51.520;9.954;2024-03-08T04:40:07;42.82;39.34;45.66;;
11999;Laerm;40817;51.520;9.954;2024-03-08T04:42:36;43.07;38.52;55.75;;
11999;Laerm;40817;51.520;9.954;2024-03-08T04:45:05;44.91;38.67;56.60;;
11999;Laerm;40817;51.520;9.954;2024-03-08T04:47:34;45.25;37.52;57.83;;
11999;Laerm;40817;51.520;9.954;2024-03-08T04:50:03;45.65;38.21;57.51;;
11999;Laerm;40817;51.520;9.954;2024-03-08T04:52:32;46.13;39.21;61.41;;
11999;Laerm;40817;51.520;9.954;2024-03-08T04:55:00;45.93;39.08;59.13;;
11999;Laerm;40817;51.520;9.954;2024-03-08T04:57:28;46.33;39.34;61.55;;
11999;Laerm;40817;51.520;9.954;2024-03-08T04:59:55;43.53;38.37;57.84;;
11999;Laerm;40817;51.520;9.954;2024-03-08T05:02:25;44.42;40.13;57.77;;
11999;Laerm;40817;51.520;9.954;2024-03-08T05:04:52;43.91;38.81;59.93;;
11999;Laerm;40817;51.520;9.954;2024-03-08T05:07:20;46.61;39.21;60.37;;
11999;Laerm;40817;51.520;9.954;2024-03-08T05:09:48;45.24;39.21;59.09;;
11999;Laerm;40817;51.520;9.954;2024-03-08T05:12:17;44.29;38.05;57.61;;
11999;Laerm;40817;51.520;9.954;2024-03-08T05:14:45;43.92;39.08;55.22;;
11999;Laerm;40817;51.520;9.954;2024-03-08T05:17:15;42.83;38.99;52.44;;
11999;Laerm;40817;51.520;9.954;2024-03-08T05:19:43;42.71;38.95;52.36;;
11999;Laerm;40817;51.520;9.954;2024-03-08T05:22:10;47.33;40.03;75.65;;
11999;Laerm;40817;51.520;9.954;2024-03-08T05:24:37;43.40;38.95;55.39;;
11999;Laerm;40817;51.520;9.954;2024-03-08T05:27:06;43.79;39.58;54.55;;
11999;Laerm;40817;51.520;9.954;2024-03-08T05:29:33;44.28;40.23;56.07;;
11999;Laerm;40817;51.520;9.954;2024-03-08T05:32:00;43.47;39.92;54.23;;
11999;Laerm;40817;51.520;9.954;2024-03-08T05:34:30;43.50;39.92;57.92;;
11999;Laerm;40817;51.520;9.954;2024-03-08T05:36:57;43.20;40.03;51.60;;
11999;Laerm;40817;51.520;9.954;2024-03-08T05:39:26;43.43;40.80;45.94;;
11999;Laerm;40817;51.520;9.954;2024-03-08T05:41:53;43.57;40.53;49.36;;
11999;Laerm;40817;51.520;9.954;2024-03-08T05:44:22;43.60;40.13;49.77;;
11999;Laerm;40817;51.520;9.954;2024-03-08T05:46:49;43.36;39.58;46.76;;
11999;Laerm;40817;51.520;9.954;2024-03-08T05:49:17;45.29;40.62;63.08;;
11999;Laerm;40817;51.520;9.954;2024-03-08T05:51:44;46.45;40.62;69.46;;
11999;Laerm;40817;51.520;9.954;2024-03-08T05:54:13;43.61;40.98;46.05;;
11999;Laerm;40817;51.520;9.954;2024-03-08T05:56:41;43.84;40.43;51.08;;
11999;Laerm;40817;51.520;9.954;2024-03-08T05:59:09;43.58;41.14;51.31;;
11999;Laerm;40817;51.520;9.954;2024-03-08T06:01:38;45.66;40.33;62.12;;
11999;Laerm;40817;51.520;9.954;2024-03-08T06:04:07;43.77;40.62;57.14;;
11999;Laerm;40817;51.520;9.954;2024-03-08T06:06:34;43.85;40.80;50.61;;
11999;Laerm;40817;51.520;9.954;2024-03-08T06:09:03;44.54;41.22;66.61;;
11999;Laerm;40817;51.520;9.954;2024-03-08T06:11:35;44.08;40.71;59.31;;
11999;Laerm;40817;51.520;9.954;2024-03-08T06:14:03;45.14;40.53;57.04;;
11999;Laerm;40817;51.520;9.954;2024-03-08T06:16:32;53.04;41.53;69.67;;
11999;Laerm;40817;51.520;9.954;2024-03-08T06:19:01;50.39;42.09;62.54;;
11999;Laerm;40817;51.520;9.954;2024-03-08T06:21:28;50.37;42.03;61.46;;
11999;Laerm;40817;51.520;9.954;2024-03-08T06:23:56;48.67;42.76;72.97;;
11999;Laerm;40817;51.520;9.954;2024-03-08T06:26:24;45.75;42.41;53.38;;
11999;Laerm;40817;51.520;9.954;2024-03-08T06:28:54;46.06;42.16;59.82;;
11999;Laerm;40817;51.520;9.954;2024-03-08T06:31:21;47.59;42.76;68.24;;
11999;Laerm;40817;51.520;9.954;2024-03-08T06:33:49;45.13;42.22;58.09;;
11999;Laerm;40817;51.520;9.954;2024-03-08T06:36:18;45.04;42.19;55.02;;
11999;Laerm;40817;51.520;9.954;2024-03-08T06:38:47;44.63;42.03;48.60;;
11999;Laerm;40817;51.520;9.954;2024-03-08T06:41:15;44.25;41.30;50.02;;
11999;Laerm;40817;51.520;9.954;2024-03-08T06:43:42;45.67;40.98;60.06;;
11999;Laerm;40817;51.520;9.954;2024-03-08T06:46:10;48.34;44.47;62.64;;
11999;Laerm;40817;51.520;9.954;2024-03-08T06:48:38;44.91;41.68;59.79;;
11999;Laerm;40817;51.520;9.954;2024-03-08T06:51:06;45.00;42.16;58.36;;
11999;Laerm;40817;51.520;9.954;2024-03-08T06:53:34;46.01;42.09;66.38;;
11999;Laerm;40817;51.520;9.954;2024-03-08T06:56:02;45.73;42.29;55.77;;
11999;Laerm;40817;51.520;9.954;2024-03-08T06:58:29;47.75;41.30;55.77;;
11999;Laerm;40817;51.520;9.954;2024-03-08T07:00:57;49.22;40.89;60.90;;
11999;Laerm;40817;51.520;9.954;2024-03-08T07:03:26;48.44;41.38;59.56;;
11999;Laerm;40817;51.520;9.954;2024-03-08T07:05:55;45.43;42.82;53.64;;
11999;Laerm;40817;51.520;9.954;2024-03-08T07:08:24;46.39;42.65;63.31;;
11999;Laerm;40817;51.520;9.954;2024-03-08T07:10:54;45.52;42.22;60.38;;
11999;Laerm;40817;51.520;9.954;2024-03-08T07:13:21;44.73;42.53;48.84;;
11999;Laerm;40817;51.520;9.954;2024-03-08T07:15:48;45.66;42.29;52.11;;
11999;Laerm;40817;51.520;9.954;2024-03-08T07:18:18;46.77;41.96;53.70;;
11999;Laerm;40817;51.520;9.954;2024-03-08T07:20:45;46.43;42.59;54.54;;
11999;Laerm;40817;51.520;9.954;2024-03-08T07:23:13;46.61;42.09;53.89;;
11999;Laerm;40817;51.520;9.954;2024-03-08T07:26:01;44.54;39.92;52.77;;
11999;Laerm;40817;51.520;9.954;2024-03-08T07:28:28;44.52;38.95;57.80;;
11999;Laerm;40817;51.520;9.954;2024-03-08T07:30:57;43.34;40.23;56.59;;
11999;Laerm;40817;51.520;9.954;2024-03-08T07:33:38;42.90;39.34;53.35;;
11999;Laerm;40817;51.520;9.954;2024-03-08T07:36:06;43.60;39.70;54.71;;
11999;Laerm;40817;51.520;9.954;2024-03-08T07:38:34;43.79;40.53;51.60;;
11999;Laerm;40817;51.520;9.954;2024-03-08T07:41:03;46.49;41.22;61.66;;
11999;Laerm;40817;51.520;9.954;2024-03-08T07:43:30;51.10;41.30;70.25;;
11999;Laerm;40817;51.520;9.954;2024-03-08T07:45:58;49.54;42.09;60.22;;
11999;Laerm;40817;51.520;9.954;2024-03-08T07:48:25;43.81;40.43;48.28;;
11999;Laerm;40817;51.520;9.954;2024-03-08T07:50:54;43.46;39.46;51.99;;
11999;Laerm;40817;51.520;9.954;2024-03-08T07:53:21;59.31;40.43;71.77;;
11999;Laerm;40817;51.520;9.954;2024-03-08T07:55:50;52.70;39.21;67.16;;
11999;Laerm;40817;51.520;9.954;2024-03-08T07:58:19;47.50;39.46;72.57;;
11999;Laerm;40817;51.520;9.954;2024-03-08T08:00:46;46.09;41.30;56.27;;
11999;Laerm;40817;51.520;9.954;2024-03-08T08:03:13;44.94;39.92;55.23;;
11999;Laerm;40817;51.520;9.954;2024-03-08T08:05:41;45.10;40.89;57.07;;
11999;Laerm;40817;51.520;9.954;2024-03-08T08:08:09;45.45;40.03;56.34;;
11999;Laerm;40817;51.520;9.954;2024-03-08T08:10:36;44.03;39.34;58.86;;
11999;Laerm;40817;51.520;9.954;2024-03-08T08:13:04;44.29;40.13;55.10;;
11999;Laerm;40817;51.520;9.954;2024-03-08T08:15:32;42.79;36.20;54.97;;
11999;Laerm;40817;51.520;9.954;2024-03-08T08:18:00;42.89;39.21;48.77;;
11999;Laerm;40817;51.520;9.954;2024-03-08T08:20:28;48.02;41.61;57.64;;
11999;Laerm;40817;51.520;9.954;2024-03-08T08:22:56;51.20;41.53;59.95;;
11999;Laerm;40817;51.520;9.954;2024-03-08T08:25:24;44.96;41.46;58.83;;
11999;Laerm;40817;51.520;9.954;2024-03-08T08:27:52;46.03;40.62;63.99;;
11999;Laerm;40817;51.520;9.954;2024-03-08T08:30:19;44.28;41.14;55.15;;
11999;Laerm;40817;51.520;9.954;2024-03-08T08:32:48;44.19;41.55;51.10;;
11999;Laerm;40817;51.520;9.954;2024-03-08T08:35:16;44.16;40.80;55.72;;
11999;Laerm;40817;51.520;9.954;2024-03-08T08:37:45;43.85;39.81;54.86;;
11999;Laerm;40817;51.520;9.954;2024-03-08T08:40:13;43.72;40.98;51.82;;
11999;Laerm;40817;51.520;9.954;2024-03-08T08:42:43;46.31;39.35;62.71;;
11999;Laerm;40817;51.520;9.954;2024-03-08T08:45:12;46.02;39.70;53.83;;
11999;Laerm;40817;51.520;9.954;2024-03-08T08:47:39;45.80;39.46;62.08;;
11999;Laerm;40817;51.520;9.954;2024-03-08T08:50:10;42.98;39.21;49.21;;
11999;Laerm;40817;51.520;9.954;2024-03-08T08:52:38;46.51;39.58;64.31;;
11999;Laerm;40817;51.520;9.954;2024-03-08T08:55:08;47.93;42.16;62.03;;
11999;Laerm;40817;51.520;9.954;2024-03-08T08:57:40;47.41;41.46;65.00;;
11999;Laerm;40817;51.520;9.954;2024-03-08T09:00:09;47.78;42.41;62.34;;
11999;Laerm;40817;51.520;9.954;2024-03-08T09:02:40;46.72;41.82;63.77;;
11999;Laerm;40817;51.520;9.954;2024-03-08T09:05:09;45.66;40.80;54.11;;
11999;Laerm;40817;51.520;9.954;2024-03-08T09:07:37;46.61;42.03;61.86;;
11999;Laerm;40817;51.520;9.954;2024-03-08T09:10:05;51.16;42.47;65.84;;
11999;Laerm;40817;51.520;9.954;2024-03-08T09:12:35;45.66;41.38;56.44;;
11999;Laerm;40817;51.520;9.954;2024-03-08T09:15:04;46.52;41.68;57.60;;
11999;Laerm;40817;51.520;9.954;2024-03-08T09:17:34;49.51;41.96;63.28;;
11999;Laerm;40817;51.520;9.954;2024-03-08T09:20:01;45.31;39.58;57.25;;
11999;Laerm;40817;51.520;9.954;2024-03-08T09:22:31;45.09;40.03;58.23;;
11999;Laerm;40817;51.520;9.954;2024-03-08T09:24:58;44.14;39.70;56.18;;
11999;Laerm;40817;51.520;9.954;2024-03-08T09:27:26;55.09;42.09;72.86;;
11999;Laerm;40817;51.520;9.954;2024-03-08T09:29:53;45.66;41.61;52.44;;
11999;Laerm;40817;51.520;9.954;2024-03-08T09:32:20;44.63;41.06;52.33;;
11999;Laerm;40817;51.520;9.954;2024-03-08T09:34:48;44.27;40.71;53.30;;
11999;Laerm;40817;51.520;9.954;2024-03-08T09:37:16;44.48;41.89;51.56;;
11999;Laerm;40817;51.520;9.954;2024-03-08T09:39:46;44.23;41.53;52.70;;
11999;Laerm;40817;51.520;9.954;2024-03-08T09:42:16;45.08;40.98;55.83;;
11999;Laerm;40817;51.520;9.954;2024-03-08T09:44:47;45.18;41.96;53.23;;
11999;Laerm;40817;51.520;9.954;2024-03-08T09:47:15;45.88;40.13;59.10;;
11999;Laerm;40817;51.520;9.954;2024-03-08T09:49:42;43.71;40.03;56.41;;
11999;Laerm;40817;51.520;9.954;2024-03-08T09:52:10;44.27;40.23;58.32;;
11999;Laerm;40817;51.520;9.954;2024-03-08T09:54:39;46.53;40.62;74.14;;
11999;Laerm;40817;51.520;9.954;2024-03-08T09:57:11;46.21;43.14;65.07;;
11999;Laerm;40817;51.520;9.954;2024-03-08T09:59:38;50.01;41.68;59.90;;
11999;Laerm;40817;51.520;9.954;2024-03-08T10:02:15;49.46;41.82;60.17;;
11999;Laerm;40817;51.520;9.954;2024-03-08T10:04:44;45.43;39.92;60.21;;
11999;Laerm;40817;51.520;9.954;2024-03-08T10:07:13;45.71;39.92;57.38;;
11999;Laerm;40817;51.520;9.954;2024-03-08T10:09:40;45.43;38.67;62.96;;
11999;Laerm;40817;51.520;9.954;2024-03-08T10:12:16;43.56;38.81;59.39;;
11999;Laerm;40817;51.520;9.954;2024-03-08T10:14:46;43.55;38.67;51.95;;
11999;Laerm;40817;51.520;9.954;2024-03-08T10:17:13;44.30;40.43;58.34;;
11999;Laerm;40817;51.520;9.954;2024-03-08T10:19:50;47.02;41.89;61.35;;
11999;Laerm;40817;51.520;9.954;2024-03-08T10:22:19;44.66;39.70;57.98;;
11999;Laerm;40817;51.520;9.954;2024-03-08T10:24:46;44.82;41.61;52.61;;
11999;Laerm;40817;51.520;9.954;2024-03-08T10:27:17;43.69;40.33;53.25;;
11999;Laerm;40817;51.520;9.954;2024-03-08T10:29:47;44.64;39.70;62.50;;
11999;Laerm;40817;51.520;9.954;2024-03-08T10:32:16;49.06;40.23;67.50;;
11999;Laerm;40817;51.520;9.954;2024-03-08T10:34:43;45.48;39.58;60.83;;
11999;Laerm;40817;51.520;9.954;2024-03-08T10:37:16;44.69;39.70;59.76;;
11999;Laerm;40817;51.520;9.954;2024-03-08T10:40:02;43.26;39.21;52.68;;
11999;Laerm;40817;51.520;9.954;2024-03-08T10:42:45;45.20;39.46;56.01;;
11999;Laerm;40817;51.520;9.954;2024-03-08T10:45:23;42.62;39.81;51.96;;
11999;Laerm;40817;51.520;9.954;2024-03-08T10:48:12;43.66;39.08;57.23;;
11999;Laerm;40817;51.520;9.954;2024-03-08T10:50:45;45.56;40.71;55.22;;
11999;Laerm;40817;51.520;9.954;2024-03-08T10:53:18;44.75;41.82;55.45;;
11999;Laerm;40817;51.520;9.954;2024-03-08T10:55:47;45.42;39.92;68.19;;
11999;Laerm;40817;51.520;9.954;2024-03-08T10:58:21;47.80;39.81;66.01;;
11999;Laerm;40817;51.520;9.954;2024-03-08T11:00:49;56.32;43.54;79.22;;
11999;Laerm;40817;51.520;9.954;2024-03-08T11:03:45;56.00;41.68;80.16;;
11999;Laerm;40817;51.520;9.954;2024-03-08T11:06:17;45.12;41.46;65.79;;
11999;Laerm;40817;51.520;9.954;2024-03-08T11:08:49;44.90;42.16;54.69;;
11999;Laerm;40817;51.520;9.954;2024-03-08T11:11:31;44.56;41.61;53.37;;
11999;Laerm;40817;51.520;9.954;2024-03-08T11:14:02;44.72;41.30;57.01;;
11999;Laerm;40817;51.520;9.954;2024-03-08T11:16:47;45.17;40.98;55.84;;
11999;Laerm;40817;51.520;9.954;2024-03-08T11:19:26;45.30;41.96;60.39;;
11999;Laerm;40817;51.520;9.954;2024-03-08T11:21:59;49.48;39.70;70.13;;
11999;Laerm;40817;51.520;9.954;2024-03-08T11:24:27;44.61;41.33;61.51;;
11999;Laerm;40817;51.520;9.954;2024-03-08T11:26:58;44.06;41.61;54.94;;
11999;Laerm;40817;51.520;9.954;2024-03-08T11:29:36;44.69;39.89;62.13;;
11999;Laerm;40817;51.520;9.954;2024-03-08T11:32:11;44.22;39.70;55.33;;
11999;Laerm;40817;51.520;9.954;2024-03-08T11:34:42;45.04;39.21;62.84;;
11999;Laerm;40817;51.520;9.954;2024-03-08T11:37:15;43.08;38.37;66.90;;
11999;Laerm;40817;51.520;9.954;2024-03-08T11:39:48;44.08;39.46;54.29;;
11999;Laerm;40817;51.520;9.954;2024-03-08T11:42:16;45.05;40.80;62.60;;
11999;Laerm;40817;51.520;9.954;2024-03-08T11:44:45;44.05;40.89;52.08;;
11999;Laerm;40817;51.520;9.954;2024-03-08T11:47:14;44.57;39.08;56.19;;
11999;Laerm;40817;51.520;9.954;2024-03-08T11:49:42;42.99;38.05;56.43;;
11999;Laerm;40817;51.520;9.954;2024-03-08T11:52:12;43.22;37.52;55.47;;
11999;Laerm;40817;51.520;9.954;2024-03-08T11:54:40;48.45;40.89;61.12;;
11999;Laerm;40817;51.520;9.954;2024-03-08T11:57:07;42.81;38.67;57.27;;
11999;Laerm;40817;51.520;9.954;2024-03-08T11:59:36;44.68;39.92;69.38;;
11999;Laerm;40817;51.520;9.954;2024-03-08T12:02:06;45.73;40.23;70.47;;
11999;Laerm;40817;51.520;9.954;2024-03-08T12:04:36;43.84;39.92;66.28;;
11999;Laerm;40817;51.520;9.954;2024-03-08T12:07:04;61.72;41.68;81.71;;
11999;Laerm;40817;51.520;9.954;2024-03-08T12:09:36;43.99;40.71;62.54;;
11999;Laerm;40817;51.520;9.954;2024-03-08T12:12:05;43.89;38.67;64.75;;
11999;Laerm;40817;51.520;9.954;2024-03-08T12:14:33;46.35;41.22;71.57;;
11999;Laerm;40817;51.520;9.954;2024-03-08T12:17:01;44.84;41.30;68.05;;
11999;Laerm;40817;51.520;9.954;2024-03-08T12:19:30;45.79;41.46;61.93;;
11999;Laerm;40817;51.520;9.954;2024-03-08T12:21:57;44.88;41.61;53.42;;
11999;Laerm;40817;51.520;9.954;2024-03-08T12:24:24;45.67;41.30;61.30;;
11999;Laerm;40817;51.520;9.954;2024-03-08T12:26:53;45.13;41.61;62.82;;
11999;Laerm;40817;51.520;9.954;2024-03-08T12:29:25;44.14;41.14;50.88;;
11999;Laerm;40817;51.520;9.954;2024-03-08T12:31:55;43.94;39.08;64.83;;
11999;Laerm;40817;51.520;9.954;2024-03-08T12:34:24;43.41;40.13;48.99;;
11999;Laerm;40817;51.520;9.954;2024-03-08T12:36:54;45.38;41.75;64.37;;
11999;Laerm;40817;51.520;9.954;2024-03-08T12:39:22;47.32;41.53;58.46;;
11999;Laerm;40817;51.520;9.954;2024-03-08T12:41:53;47.05;42.03;55.67;;
11999;Laerm;40817;51.520;9.954;2024-03-08T12:44:20;47.19;42.22;62.27;;
11999;Laerm;40817;51.520;9.954;2024-03-08T12:46:48;49.88;43.04;58.87;;
11999;Laerm;40817;51.520;9.954;2024-03-08T12:49:17;46.35;41.96;60.38;;
11999;Laerm;40817;51.520;9.954;2024-03-08T12:51:44;44.45;40.53;52.45;;
11999;Laerm;40817;51.520;9.954;2024-03-08T12:54:13;45.60;41.75;68.02;;
11999;Laerm;40817;51.520;9.954;2024-03-08T12:56:40;45.33;41.53;53.44;;
11999;Laerm;40817;51.520;9.954;2024-03-08T12:59:08;45.23;41.19;65.87;;
11999;Laerm;40817;51.520;9.954;2024-03-08T13:01:36;45.68;41.89;57.87;;
11999;Laerm;40817;51.520;9.954;2024-03-08T13:04:04;45.77;42.03;54.34;;
11999;Laerm;40817;51.520;9.954;2024-03-08T13:06:32;45.37;41.82;54.46;;
11999;Laerm;40817;51.520;9.954;2024-03-08T13:09:00;44.59;42.29;56.22;;
11999;Laerm;40817;51.520;9.954;2024-03-08T13:11:32;45.07;41.75;55.96;;
11999;Laerm;40817;51.520;9.954;2024-03-08T13:14:03;44.53;41.22;52.78;;
11999;Laerm;40817;51.520;9.954;2024-03-08T13:16:32;44.78;41.82;53.44;;
11999;Laerm;40817;51.520;9.954;2024-03-08T13:19:00;44.25;41.38;50.72;;
11999;Laerm;40817;51.520;9.954;2024-03-08T13:21:28;44.24;41.30;54.64;;
11999;Laerm;40817;51.520;9.954;2024-03-08T13:23:56;45.78;42.53;56.49;;
11999;Laerm;40817;51.520;9.954;2024-03-08T13:26:25;44.99;42.09;59.59;;
11999;Laerm;40817;51.520;9.954;2024-03-08T13:29:00;45.62;42.09;63.45;;
11999;Laerm;40817;51.520;9.954;2024-03-08T13:31:27;59.09;41.82;76.14;;
11999;Laerm;40817;51.520;9.954;2024-03-08T13:33:54;47.70;40.80;74.80;;
11999;Laerm;40817;51.520;9.954;2024-03-08T13:36:24;44.14;40.80;56.68;;
11999;Laerm;40817;51.520;9.954;2024-03-08T13:38:55;43.76;39.81;57.33;;
11999;Laerm;40817;51.520;9.954;2024-03-08T13:41:25;44.03;40.23;63.10;;
11999;Laerm;40817;51.520;9.954;2024-03-08T13:43:52;44.10;39.58;68.73;;
11999;Laerm;40817;51.520;9.954;2024-03-08T13:46:24;43.64;39.34;54.30;;
11999;Laerm;40817;51.520;9.954;2024-03-08T13:48:52;44.69;40.53;58.47;;
11999;Laerm;40817;51.520;9.954;2024-03-08T13:51:20;43.66;39.92;62.24;;
11999;Laerm;40817;51.520;9.954;2024-03-08T13:53:48;43.48;39.92;52.60;;
11999;Laerm;40817;51.520;9.954;2024-03-08T13:56:15;43.60;40.03;55.06;;
11999;Laerm;40817;51.520;9.954;2024-03-08T13:58:43;45.53;39.70;60.69;;
11999;Laerm;40817;51.520;9.954;2024-03-08T14:01:10;43.32;38.52;59.70;;
11999;Laerm;40817;51.520;9.954;2024-03-08T14:03:39;42.72;36.91;49.04;;
11999;Laerm;40817;51.520;9.954;2024-03-08T14:06:07;43.12;39.81;49.98;;
11999;Laerm;40817;51.520;9.954;2024-03-08T14:08:35;43.13;39.92;48.55;;
11999;Laerm;40817;51.520;9.954;2024-03-08T14:11:04;43.20;39.21;68.76;;
11999;Laerm;40817;51.520;9.954;2024-03-08T14:13:41;43.84;39.34;60.38;;
11999;Laerm;40817;51.520;9.954;2024-03-08T14:16:11;43.11;39.46;49.08;;
11999;Laerm;40817;51.520;9.954;2024-03-08T14:18:40;42.49;38.52;50.72;;
11999;Laerm;40817;51.520;9.954;2024-03-08T14:21:07;44.06;38.52;57.07;;
11999;Laerm;40817;51.520;9.954;2024-03-08T14:23:36;43.27;40.03;48.63;;
11999;Laerm;40817;51.520;9.954;2024-03-08T14:26:04;42.86;38.95;51.94;;
11999;Laerm;40817;51.520;9.954;2024-03-08T14:28:33;43.22;39.21;57.87;;
11999;Laerm;40817;51.520;9.954;2024-03-08T14:31:00;43.30;39.81;59.63;;
11999;Laerm;40817;51.520;9.954;2024-03-08T14:33:29;43.15;40.33;52.18;;
11999;Laerm;40817;51.520;9.954;2024-03-08T14:35:58;42.91;38.37;55.86;;
11999;Laerm;40817;51.520;9.954;2024-03-08T14:38:26;58.46;40.43;76.61;;
11999;Laerm;40817;51.520;9.954;2024-03-08T14:40:54;43.63;40.71;53.20;;